Time;durP1;ratioP1;P1;durP2;ratioP2;P2;SDS_P1;SDS_P2;PMS_P1;PMS_P2;Temp;Humidity;BMP_temperature;BMP_pressure;BME280_temperature;BME280_humidity;BME280_pressure;Samples;Min_cycle;Max_cycle;Signal;HPM_P1;HPM_P2
2024/01/25 00:00:54;;;;;;;28.00;3.63;;;;;;;;;;5262305;28;20028;-82
2024/01/25 00:03:25;;;;;;;21.77;4.18;;;;;;;;;;5261410;28;20476;-82
2024/01/25 00:05:56;;;;;;;23.55;4.72;;;;;;;;;;5261080;28;20043;-82
2024/01/25 00:08:27;;;;;;;20.63;3.35;;;;;;;;;;5261562;28;20113;-81
2024/01/25 00:11:01;;;;;;;24.52;4.03;;;;;;;;;;5261859;28;20483;-81
2024/01/25 00:13:32;;;;;;;23.27;4.40;;;;;;;;;;5242445;28;20044;-81
2024/01/25 00:16:03;;;;;;;24.40;4.00;;;;;;;;;;5261782;28;20028;-82
2024/01/25 00:18:34;;;;;;;24.60;5.32;;;;;;;;;;5261487;28;20029;-82
2024/01/25 00:21:05;;;;;;;33.42;5.18;;;;;;;;;;5261103;28;20476;-81
2024/01/25 00:23:37;;;;;;;23.02;3.20;;;;;;;;;;5261705;28;20056;-81
2024/01/25 00:26:08;;;;;;;27.10;3.72;;;;;;;;;;5261465;28;20075;-82
2024/01/25 00:28:39;;;;;;;31.85;4.65;;;;;;;;;;5260605;28;20047;-81
2024/01/25 00:31:10;;;;;;;25.63;4.93;;;;;;;;;;5261413;28;20420;-82
2024/01/25 00:33:41;;;;;;;29.08;5.03;;;;;;;;;;5260741;28;20526;-81
2024/01/25 00:36:13;;;;;;;28.08;3.80;;;;;;;;;;5261426;28;20025;-81
2024/01/25 00:38:44;;;;;;;24.13;4.50;;;;;;;;;;5261149;28;20108;-81
2024/01/25 00:41:19;;;;;;;23.52;4.13;;;;;;;;;;5260409;28;20107;-82
2024/01/25 00:43:50;;;;;;;27.10;3.92;;;;;;;;;;5261524;28;20025;-82
2024/01/25 00:46:21;;;;;;;27.38;4.68;;;;;;;;;;5260832;28;20017;-83
2024/01/25 00:48:53;;;;;;;24.40;3.60;;;;;;;;;;5260582;28;20025;-82
2024/01/25 00:51:24;;;;;;;26.10;4.68;;;;;;;;;;5260796;28;20377;-81
2024/01/25 00:53:55;;;;;;;22.40;4.13;;;;;;;;;;5261121;28;20049;-83
2024/01/25 00:56:27;;;;;;;24.23;3.40;;;;;;;;;;5260147;28;20048;-81
2024/01/25 00:58:58;;;;;;;25.88;3.80;;;;;;;;;;5261198;28;20017;-81
2024/01/25 01:01:29;;;;;;;24.08;4.47;;;;;;;;;;5261108;28;20074;-81
2024/01/25 01:04:01;;;;;;;26.95;4.43;;;;;;;;;;5260389;28;20056;-82
2024/01/25 01:06:32;;;;;;;26.05;3.10;;;;;;;;;;5260906;28;20372;-82
2024/01/25 01:09:03;;;;;;;25.30;4.55;;;;;;;;;;5260341;28;20411;-81
2024/01/25 01:11:36;;;;;;;25.92;4.18;;;;;;;;;;5260818;28;20024;-82
2024/01/25 01:14:07;;;;;;;28.77;4.07;;;;;;;;;;5264186;28;20021;-80
2024/01/25 01:16:38;;;;;;;24.13;4.05;;;;;;;;;;5267085;28;20013;-81
2024/01/25 01:19:09;;;;;;;27.73;4.35;;;;;;;;;;5267712;28;20013;-81
2024/01/25 01:21:43;;;;;;;22.42;3.33;;;;;;;;;;5268098;28;20143;-80
2024/01/25 01:24:14;;;;;;;25.23;3.70;;;;;;;;;;5267167;28;20414;-81
2024/01/25 01:26:46;;;;;;;18.90;3.05;;;;;;;;;;5259766;28;20017;-81
2024/01/25 01:29:18;;;;;;;21.33;4.57;;;;;;;;;;5267783;28;20110;-81
2024/01/25 01:31:49;;;;;;;20.52;4.20;;;;;;;;;;5267401;28;20013;-81
2024/01/25 01:34:20;;;;;;;24.38;4.28;;;;;;;;;;5267760;28;20109;-82
2024/01/25 01:36:51;;;;;;;22.52;3.45;;;;;;;;;;5267334;28;20028;-81
2024/01/25 01:39:22;;;;;;;23.73;3.20;;;;;;;;;;5267862;28;20020;-82
2024/01/25 01:41:54;;;;;;;28.63;3.83;;;;;;;;;;5267880;28;20024;-81
2024/01/25 01:44:25;;;;;;;26.52;4.13;;;;;;;;;;5267461;28;20029;-81
2024/01/25 01:46:56;;;;;;;25.40;3.30;;;;;;;;;;5268056;28;20031;-81
2024/01/25 01:49:27;;;;;;;23.15;4.93;;;;;;;;;;5269029;28;20116;-80
2024/01/25 01:51:58;;;;;;;29.52;3.80;;;;;;;;;;5268220;28;20028;-82
2024/01/25 01:54:30;;;;;;;25.58;3.88;;;;;;;;;;5268466;28;20052;-80
2024/01/25 01:57:02;;;;;;;27.25;3.92;;;;;;;;;;5270110;28;20040;-80
2024/01/25 01:59:33;;;;;;;27.58;4.32;;;;;;;;;;5269165;28;20020;-80
2024/01/25 02:02:04;;;;;;;26.00;4.20;;;;;;;;;;5270245;28;20464;-81
2024/01/25 02:04:35;;;;;;;23.70;4.10;;;;;;;;;;5269599;28;20068;-79
2024/01/25 02:07:07;;;;;;;25.60;4.15;;;;;;;;;;5267707;28;20021;-80
2024/01/25 02:09:38;;;;;;;23.60;3.53;;;;;;;;;;5267937;28;20028;-81
2024/01/25 02:12:09;;;;;;;28.55;4.05;;;;;;;;;;5267207;28;20070;-81
2024/01/25 02:14:40;;;;;;;22.75;3.47;;;;;;;;;;5267610;28;20029;-81
2024/01/25 02:17:11;;;;;;;26.18;3.94;;;;;;;;;;5267516;28;20039;-81
2024/01/25 02:19:43;;;;;;;26.75;4.25;;;;;;;;;;5266902;28;20012;-81
2024/01/25 02:22:18;;;;;;;23.63;4.25;;;;;;;;;;5268593;28;20472;-81
2024/01/25 02:24:50;;;;;;;28.30;4.25;;;;;;;;;;5266887;28;20024;-82
2024/01/25 02:27:21;;;;;;;26.25;4.32;;;;;;;;;;5262429;28;20021;-81
2024/01/25 02:29:52;;;;;;;35.17;4.75;;;;;;;;;;5264057;28;20033;-80
2024/01/25 02:32:23;;;;;;;19.35;3.03;;;;;;;;;;5263730;28;20104;-81
2024/01/25 02:34:54;;;;;;;23.95;2.80;;;;;;;;;;5263327;28;20079;-80
2024/01/25 02:37:25;;;;;;;22.77;2.95;;;;;;;;;;5263350;28;20100;-81
2024/01/25 02:39:58;;;;;;;26.40;3.40;;;;;;;;;;5263568;28;20166;-80
2024/01/25 02:42:29;;;;;;;20.77;3.60;;;;;;;;;;5262839;28;20090;-81
2024/01/25 02:45:00;;;;;;;18.83;3.08;;;;;;;;;;5263396;28;20017;-81
2024/01/25 02:47:31;;;;;;;24.83;3.72;;;;;;;;;;5262797;28;20502;-81
2024/01/25 02:50:02;;;;;;;17.60;3.28;;;;;;;;;;5263508;28;20112;-82
2024/01/25 02:52:34;;;;;;;24.55;3.97;;;;;;;;;;5263293;28;20021;-82
2024/01/25 02:55:05;;;;;;;28.23;5.05;;;;;;;;;;5262283;28;20370;-82
2024/01/25 02:57:36;;;;;;;20.23;3.55;;;;;;;;;;5263306;28;20508;-82
2024/01/25 03:00:08;;;;;;;28.95;3.72;;;;;;;;;;5263323;28;20028;-82
2024/01/25 03:02:39;;;;;;;26.63;3.55;;;;;;;;;;5261152;28;20017;-82
2024/01/25 03:05:11;;;;;;;28.50;4.25;;;;;;;;;;5263142;28;20450;-82
2024/01/25 03:07:42;;;;;;;26.65;2.63;;;;;;;;;;5262879;28;20040;-82
2024/01/25 03:10:13;;;;;;;22.90;3.42;;;;;;;;;;5262382;28;20460;-82
2024/01/25 03:12:45;;;;;;;26.60;3.83;;;;;;;;;;5263124;28;20021;-81
2024/01/25 03:15:16;;;;;;;27.50;3.35;;;;;;;;;;5262302;28;20020;-82
2024/01/25 03:17:47;;;;;;;27.42;4.03;;;;;;;;;;5262907;28;20031;-81
2024/01/25 03:20:18;;;;;;;30.45;4.05;;;;;;;;;;5263028;28;20021;-82
2024/01/25 03:22:49;;;;;;;23.35;2.92;;;;;;;;;;5262179;28;20029;-82
2024/01/25 03:25:21;;;;;;;24.58;3.10;;;;;;;;;;5262703;28;20104;-82
2024/01/25 03:27:52;;;;;;;20.05;4.30;;;;;;;;;;5262679;28;20028;-82
2024/01/25 03:30:23;;;;;;;21.98;3.58;;;;;;;;;;5261903;28;20456;-82
2024/01/25 03:32:54;;;;;;;25.90;3.95;;;;;;;;;;5263173;28;20020;-82
2024/01/25 03:35:25;;;;;;;23.23;3.90;;;;;;;;;;5262331;28;20033;-81
2024/01/25 03:37:56;;;;;;;21.77;3.38;;;;;;;;;;5261515;28;20032;-81
2024/01/25 03:40:28;;;;;;;24.27;3.53;;;;;;;;;;5262253;28;20032;-82
2024/01/25 03:42:59;;;;;;;26.60;4.07;;;;;;;;;;5262544;28;20024;-82
2024/01/25 03:45:32;;;;;;;23.38;3.28;;;;;;;;;;5261571;28;20021;-82
2024/01/25 03:48:03;;;;;;;21.00;2.97;;;;;;;;;;5262309;28;20025;-82
2024/01/25 03:50:34;;;;;;;23.00;3.28;;;;;;;;;;5261519;28;20025;-82
2024/01/25 03:53:06;;;;;;;20.80;3.33;;;;;;;;;;5262130;28;20139;-82
2024/01/25 03:55:37;;;;;;;19.17;3.15;;;;;;;;;;5261797;28;20130;-82
2024/01/25 03:58:08;;;;;;;25.35;2.97;;;;;;;;;;5261478;28;20399;-82
2024/01/25 04:00:39;;;;;;;26.17;2.70;;;;;;;;;;5262050;28;20029;-81
2024/01/25 04:03:11;;;;;;;27.05;4.15;;;;;;;;;;5261777;28;20055;-81
2024/01/25 04:05:42;;;;;;;23.77;3.60;;;;;;;;;;5260957;28;20021;-82
2024/01/25 04:08:13;;;;;;;21.20;2.53;;;;;;;;;;5262016;28;20032;-82
2024/01/25 04:10:44;;;;;;;21.73;3.15;;;;;;;;;;5261683;28;20028;-82
2024/01/25 04:13:15;;;;;;;19.20;2.70;;;;;;;;;;5260973;28;20052;-82
2024/01/25 04:15:47;;;;;;;20.15;3.80;;;;;;;;;;5262711;28;20025;-82
2024/01/25 04:18:18;;;;;;;24.23;4.53;;;;;;;;;;5261515;28;20058;-82
2024/01/25 04:20:50;;;;;;;18.92;3.10;;;;;;;;;;5260787;28;20024;-82
2024/01/25 04:23:21;;;;;;;22.00;3.78;;;;;;;;;;5261337;28;20025;-82
2024/01/25 04:25:55;;;;;;;27.88;4.03;;;;;;;;;;5261083;28;20020;-82
2024/01/25 04:28:26;;;;;;;21.63;2.85;;;;;;;;;;5260891;28;20037;-82
2024/01/25 04:30:57;;;;;;;24.38;3.13;;;;;;;;;;5261768;28;20031;-82
2024/01/25 04:33:29;;;;;;;22.80;3.00;;;;;;;;;;5260846;28;20025;-82
2024/01/25 04:36:00;;;;;;;21.48;2.90;;;;;;;;;;5261431;28;20021;-82
2024/01/25 04:38:31;;;;;;;23.85;3.50;;;;;;;;;;5261150;28;20036;-82
2024/01/25 04:41:03;;;;;;;21.42;3.33;;;;;;;;;;5260350;28;20492;-82
2024/01/25 04:43:35;;;;;;;25.25;4.07;;;;;;;;;;5261224;28;20032;-82
2024/01/25 04:46:07;;;;;;;27.13;3.13;;;;;;;;;;5261212;28;20021;-82
2024/01/25 04:48:39;;;;;;;15.93;2.63;;;;;;;;;;5259635;28;20036;-82
2024/01/25 04:51:17;;;;;;;25.92;5.45;;;;;;;;;;5261100;28;20017;-82
2024/01/25 04:53:48;;;;;;;20.15;2.80;;;;;;;;;;5260090;28;20043;-82
2024/01/25 04:56:19;;;;;;;28.70;3.58;;;;;;;;;;5260929;28;20065;-82
2024/01/25 04:58:51;;;;;;;17.67;3.03;;;;;;;;;;5260747;28;20027;-81
2024/01/25 05:01:22;;;;;;;26.05;3.45;;;;;;;;;;5259875;28;20486;-81
2024/01/25 05:03:53;;;;;;;26.83;4.07;;;;;;;;;;5261217;28;20029;-81
2024/01/25 05:06:24;;;;;;;29.60;4.22;;;;;;;;;;5260939;28;20487;-82
2024/01/25 05:08:55;;;;;;;18.90;3.45;;;;;;;;;;5261695;28;20055;-82
2024/01/25 05:11:27;;;;;;;14.30;2.30;;;;;;;;;;5261226;28;20053;-83
2024/01/25 05:13:58;;;;;;;22.58;2.85;;;;;;;;;;5260943;28;20029;-82
2024/01/25 05:16:29;;;;;;;16.95;2.80;;;;;;;;;;5260253;28;20013;-81
2024/01/25 05:19:00;;;;;;;21.65;3.47;;;;;;;;;;5260867;28;20027;-82
2024/01/25 05:21:31;;;;;;;22.60;3.33;;;;;;;;;;5261067;28;20468;-81
2024/01/25 05:24:03;;;;;;;22.05;3.00;;;;;;;;;;5260264;28;20021;-83
2024/01/25 05:26:34;;;;;;;20.30;3.35;;;;;;;;;;5260814;28;20035;-82
2024/01/25 05:29:05;;;;;;;16.48;3.33;;;;;;;;;;5259861;28;20048;-82
2024/01/25 05:31:37;;;;;;;20.85;4.18;;;;;;;;;;5260885;28;20029;-82
2024/01/25 05:34:08;;;;;;;15.88;3.30;;;;;;;;;;5260792;28;20452;-82
2024/01/25 05:36:41;;;;;;;23.60;3.70;;;;;;;;;;5259880;28;20021;-82
2024/01/25 05:39:13;;;;;;;23.30;3.17;;;;;;;;;;5260547;28;20092;-82
2024/01/25 05:41:47;;;;;;;21.92;2.90;;;;;;;;;;5260803;28;20121;-80
2024/01/25 05:44:18;;;;;;;18.63;3.17;;;;;;;;;;5259714;28;20484;-80
2024/01/25 05:46:49;;;;;;;23.65;3.25;;;;;;;;;;5260706;28;20031;-81
2024/01/25 05:49:21;;;;;;;22.30;3.33;;;;;;;;;;5260329;28;20083;-81
2024/01/25 05:51:52;;;;;;;20.67;3.20;;;;;;;;;;5259984;28;20361;-81
2024/01/25 05:54:23;;;;;;;21.65;3.05;;;;;;;;;;5260080;28;20072;-81
2024/01/25 05:56:54;;;;;;;15.98;2.72;;;;;;;;;;5260438;28;20032;-81
2024/01/25 05:59:25;;;;;;;20.67;3.30;;;;;;;;;;5260142;28;20013;-81
2024/01/25 06:01:56;;;;;;;26.88;3.76;;;;;;;;;;5264668;28;20028;-81
2024/01/25 06:04:28;;;;;;;20.72;3.76;;;;;;;;;;5266435;28;20013;-81
2024/01/25 06:06:59;;;;;;;22.38;3.42;;;;;;;;;;5275099;28;20028;-80
2024/01/25 06:09:31;;;;;;;23.40;3.42;;;;;;;;;;5268391;28;20476;-81
2024/01/25 06:12:04;;;;;;;20.27;3.92;;;;;;;;;;5263644;28;20365;-81
2024/01/25 06:14:35;;;;;;;21.20;3.38;;;;;;;;;;5264090;28;20028;-81
2024/01/25 06:17:06;;;;;;;20.85;2.88;;;;;;;;;;5264262;28;20468;-81
2024/01/25 06:19:38;;;;;;;18.75;3.70;;;;;;;;;;5263223;28;20032;-82
2024/01/25 06:22:09;;;;;;;21.98;2.70;;;;;;;;;;5264167;28;20064;-81
2024/01/25 06:24:40;;;;;;;28.27;3.42;;;;;;;;;;5263543;28;20043;-81
2024/01/25 06:27:11;;;;;;;28.45;3.88;;;;;;;;;;5262631;28;20135;-81
2024/01/25 06:29:43;;;;;;;22.35;4.38;;;;;;;;;;5263537;28;20031;-81
2024/01/25 06:32:14;;;;;;;32.30;2.97;;;;;;;;;;5263148;28;20495;-81
2024/01/25 06:34:45;;;;;;;20.58;2.83;;;;;;;;;;5263787;28;20056;-81
2024/01/25 06:37:18;;;;;;;24.67;3.55;;;;;;;;;;5263841;28;20021;-83
2024/01/25 06:39:49;;;;;;;20.95;4.50;;;;;;;;;;5262889;28;20459;-81
2024/01/25 06:42:21;;;;;;;23.90;3.00;;;;;;;;;;5263724;28;20063;-83
2024/01/25 06:44:52;;;;;;;15.77;2.72;;;;;;;;;;5263772;28;20021;-82
2024/01/25 06:47:24;;;;;;;18.92;3.10;;;;;;;;;;5260157;28;20499;-83
2024/01/25 06:49:55;;;;;;;23.73;4.07;;;;;;;;;;5263865;28;20411;-81
2024/01/25 06:52:26;;;;;;;25.13;3.90;;;;;;;;;;5262924;28;20360;-82
2024/01/25 06:54:57;;;;;;;27.08;5.05;;;;;;;;;;5262495;28;20053;-82
2024/01/25 06:57:29;;;;;;;22.17;4.28;;;;;;;;;;5245428;28;20053;-82
2024/01/25 07:00:00;;;;;;;19.45;3.72;;;;;;;;;;5263380;28;20020;-82
2024/01/25 07:02:31;;;;;;;21.23;3.67;;;;;;;;;;5262349;28;20009;-81
2024/01/25 07:05:02;;;;;;;25.98;3.67;;;;;;;;;;5263179;28;20040;-81
2024/01/25 07:07:34;;;;;;;25.40;4.13;;;;;;;;;;5262620;28;20037;-82
2024/01/25 07:10:06;;;;;;;20.67;3.45;;;;;;;;;;5262897;28;20028;-81
2024/01/25 07:12:37;;;;;;;18.27;3.67;;;;;;;;;;5262217;28;20055;-82
2024/01/25 07:15:08;;;;;;;22.45;3.33;;;;;;;;;;5261980;28;20553;-82
2024/01/25 07:17:39;;;;;;;18.85;3.55;;;;;;;;;;5263095;28;20402;-81
2024/01/25 07:20:11;;;;;;;23.65;3.28;;;;;;;;;;5263188;28;20025;-81
2024/01/25 07:22:42;;;;;;;24.67;3.97;;;;;;;;;;5262038;28;20017;-80
2024/01/25 07:25:13;;;;;;;26.55;4.93;;;;;;;;;;5262776;28;20025;-80
2024/01/25 07:27:45;;;;;;;26.00;4.35;;;;;;;;;;5262664;28;20468;-80
2024/01/25 07:30:16;;;;;;;29.20;4.15;;;;;;;;;;5262430;28;20036;-81
2024/01/25 07:32:49;;;;;;;22.25;3.92;;;;;;;;;;5263087;28;20044;-81
2024/01/25 07:35:23;;;;;;;29.17;4.45;;;;;;;;;;5262916;28;20017;-81
2024/01/25 07:37:54;;;;;;;28.05;3.67;;;;;;;;;;5264237;28;20491;-81
2024/01/25 07:40:25;;;;;;;26.77;4.68;;;;;;;;;;5262322;28;20060;-81
2024/01/25 07:42:56;;;;;;;22.44;4.36;;;;;;;;;;5262252;28;20036;-81
2024/01/25 07:45:27;;;;;;;25.48;4.03;;;;;;;;;;5262879;28;20108;-81
2024/01/25 07:47:59;;;;;;;24.20;4.13;;;;;;;;;;5263911;28;20025;-80
2024/01/25 07:50:30;;;;;;;22.17;3.45;;;;;;;;;;5261861;28;20120;-81
2024/01/25 07:53:02;;;;;;;25.50;4.63;;;;;;;;;;5263424;28;20032;-79
2024/01/25 07:55:33;;;;;;;25.80;4.70;;;;;;;;;;5264982;28;20041;-79
2024/01/25 07:58:05;;;;;;;24.92;4.82;;;;;;;;;;5274963;28;20032;-79
2024/01/25 08:00:36;;;;;;;28.50;5.13;;;;;;;;;;5264070;28;20404;-77
2024/01/25 08:03:07;;;;;;;27.08;4.25;;;;;;;;;;5261756;28;20079;-78
2024/01/25 08:05:38;;;;;;;31.45;5.53;;;;;;;;;;5261199;28;20009;-76
2024/01/25 08:08:10;;;;;;;19.42;4.00;;;;;;;;;;5261790;28;20033;-81
2024/01/25 08:10:41;;;;;;;25.27;4.50;;;;;;;;;;5260834;28;20108;-80
2024/01/25 08:13:12;;;;;;;22.33;4.07;;;;;;;;;;5261885;28;20456;-80
2024/01/25 08:15:43;;;;;;;25.95;4.40;;;;;;;;;;5261774;28;20463;-80
2024/01/25 08:18:15;;;;;;;23.40;4.38;;;;;;;;;;5259074;28;20465;-80
2024/01/25 08:20:46;;;;;;;21.48;4.53;;;;;;;;;;5259618;28;20024;-80
2024/01/25 08:23:18;;;;;;;23.15;4.72;;;;;;;;;;5258043;28;20041;-80
2024/01/25 08:25:49;;;;;;;25.95;4.20;;;;;;;;;;5258806;28;20025;-80
2024/01/25 08:28:21;;;;;;;22.23;4.97;;;;;;;;;;5259362;28;20033;-80
2024/01/25 08:30:53;;;;;;;23.85;4.70;;;;;;;;;;5260678;28;20013;-81
2024/01/25 08:33:27;;;;;;;20.88;4.15;;;;;;;;;;5260442;28;20021;-81
2024/01/25 08:35:58;;;;;;;21.08;4.38;;;;;;;;;;5261405;28;20025;-79
2024/01/25 08:38:29;;;;;;;23.90;5.03;;;;;;;;;;5261010;28;20522;-81
2024/01/25 08:41:01;;;;;;;23.25;4.60;;;;;;;;;;5260554;28;20358;-79
2024/01/25 08:43:32;;;;;;;21.90;5.13;;;;;;;;;;5261305;28;20064;-78
2024/01/25 08:46:04;;;;;;;22.25;5.45;;;;;;;;;;5257968;28;20024;-79
2024/01/25 08:48:35;;;;;;;17.27;4.65;;;;;;;;;;5260133;28;20383;-79
2024/01/25 08:51:07;;;;;;;25.30;6.00;;;;;;;;;;5260920;28;20017;-80
2024/01/25 08:53:39;;;;;;;22.08;5.35;;;;;;;;;;5259666;28;20033;-79
2024/01/25 08:56:10;;;;;;;21.90;6.38;;;;;;;;;;5261199;28;20399;-79
2024/01/25 08:58:41;;;;;;;20.38;6.00;;;;;;;;;;5260969;28;20025;-80
2024/01/25 09:01:12;;;;;;;19.48;7.65;;;;;;;;;;5259573;28;20174;-80
2024/01/25 09:03:43;;;;;;;19.65;7.20;;;;;;;;;;5261032;28;20388;-74
2024/01/25 09:06:15;;;;;;;20.15;6.60;;;;;;;;;;5260886;28;20040;-75
2024/01/25 09:08:46;;;;;;;17.77;7.00;;;;;;;;;;5259885;28;20028;-79
2024/01/25 09:11:18;;;;;;;20.67;7.88;;;;;;;;;;5260503;28;20025;-78
2024/01/25 09:13:50;;;;;;;25.08;9.23;;;;;;;;;;5259301;28;20021;-78
2024/01/25 09:16:22;;;;;;;24.30;7.97;;;;;;;;;;5260300;28;20039;-79
2024/01/25 09:18:53;;;;;;;16.77;6.90;;;;;;;;;;5261390;28;20036;-79
2024/01/25 09:21:24;;;;;;;26.60;8.48;;;;;;;;;;5259775;28;20022;-78
2024/01/25 09:23:55;;;;;;;18.08;7.30;;;;;;;;;;5260997;28;20032;-78
2024/01/25 09:26:27;;;;;;;21.42;8.15;;;;;;;;;;5260153;28;20033;-79
2024/01/25 09:28:58;;;;;;;24.63;7.85;;;;;;;;;;5260078;28;20513;-79
2024/01/25 09:31:29;;;;;;;23.30;7.93;;;;;;;;;;5260768;28;20487;-78
2024/01/25 09:34:00;;;;;;;19.95;8.68;;;;;;;;;;5260687;28;20020;-79
2024/01/25 09:36:31;;;;;;;21.13;8.18;;;;;;;;;;5263639;28;20021;-77
2024/01/25 09:39:04;;;;;;;22.75;9.07;;;;;;;;;;5264750;28;20033;-76
2024/01/25 09:41:35;;;;;;;26.02;9.20;;;;;;;;;;5264827;28;20472;-77
2024/01/25 09:44:08;;;;;;;22.75;8.88;;;;;;;;;;5264694;28;20086;-78
2024/01/25 09:46:40;;;;;;;22.58;9.27;;;;;;;;;;5268771;28;20024;-78
2024/01/25 09:49:11;;;;;;;25.60;8.48;;;;;;;;;;5263819;28;20039;-79
2024/01/25 09:51:43;;;;;;;21.55;8.27;;;;;;;;;;5264069;28;20504;-80
2024/01/25 09:54:15;;;;;;;17.58;7.30;;;;;;;;;;5264093;28;20156;-80
2024/01/25 09:56:50;;;;;;;18.50;7.70;;;;;;;;;;5263852;28;20086;-80
2024/01/25 09:59:22;;;;;;;21.05;7.97;;;;;;;;;;5264002;28;20039;-80
2024/01/25 10:01:53;;;;;;;23.50;8.15;;;;;;;;;;5264331;28;20025;-80
2024/01/25 10:04:24;;;;;;;25.10;8.52;;;;;;;;;;5263025;28;20012;-80
2024/01/25 10:06:56;;;;;;;17.73;7.90;;;;;;;;;;5264690;28;20025;-80
2024/01/25 10:09:28;;;;;;;21.20;8.52;;;;;;;;;;5281814;28;20033;-80
2024/01/25 10:11:59;;;;;;;19.02;7.72;;;;;;;;;;5283972;28;20391;-80
2024/01/25 10:14:30;;;;;;;25.02;8.70;;;;;;;;;;5284488;28;20032;-80
2024/01/25 10:17:02;;;;;;;24.15;8.77;;;;;;;;;;5285005;28;20455;-80
2024/01/25 10:19:33;;;;;;;23.77;10.00;;;;;;;;;;5283405;28;20059;-80
2024/01/25 10:22:06;;;;;;;22.50;8.45;;;;;;;;;;5284899;28;20019;-80
2024/01/25 10:24:38;;;;;;;21.70;7.32;;;;;;;;;;5283848;28;20077;-80
2024/01/25 10:27:10;;;;;;;24.85;9.07;;;;;;;;;;5284893;28;20368;-80
2024/01/25 10:29:41;;;;;;;23.52;9.02;;;;;;;;;;5284616;28;20101;-81
2024/01/25 10:32:13;;;;;;;23.05;7.57;;;;;;;;;;5283906;28;20020;-81
2024/01/25 10:34:45;;;;;;;26.25;8.32;;;;;;;;;;5284047;28;20017;-80
2024/01/25 10:37:17;;;;;;;26.20;8.13;;;;;;;;;;5284370;28;20020;-77
2024/01/25 10:39:48;;;;;;;30.10;8.50;;;;;;;;;;5283510;28;20036;-77
2024/01/25 10:42:21;;;;;;;27.52;8.23;;;;;;;;;;5284365;28;20036;-76
2024/01/25 10:44:52;;;;;;;31.27;8.65;;;;;;;;;;5282605;28;20028;-80
2024/01/25 10:47:23;;;;;;;31.60;7.78;;;;;;;;;;5282075;28;20020;-81
2024/01/25 10:49:54;;;;;;;30.70;8.30;;;;;;;;;;5284803;28;20032;-81
2024/01/25 10:52:26;;;;;;;26.65;8.95;;;;;;;;;;5283427;28;20021;-81
2024/01/25 10:54:57;;;;;;;25.27;8.70;;;;;;;;;;5284225;28;20485;-81
2024/01/25 10:57:34;;;;;;;25.70;8.43;;;;;;;;;;5284055;28;20384;-80
2024/01/25 11:00:07;;;;;;;20.85;6.88;;;;;;;;;;5283233;28;20024;-81
2024/01/25 11:02:39;;;;;;;28.00;7.78;;;;;;;;;;5284348;28;20028;-82
2024/01/25 11:05:11;;;;;;;29.25;7.55;;;;;;;;;;5284371;28;20070;-80
2024/01/25 11:07:43;;;;;;;26.55;7.38;;;;;;;;;;5283651;28;20067;-81
2024/01/25 11:10:19;;;;;;;25.38;7.03;;;;;;;;;;5283987;28;20125;-81
2024/01/25 11:12:51;;;;;;;32.70;9.65;;;;;;;;;;5284198;28;20027;-81
2024/01/25 11:15:24;;;;;;;32.00;7.78;;;;;;;;;;5282529;28;20028;-78
2024/01/25 11:17:56;;;;;;;29.63;7.53;;;;;;;;;;5284045;28;20016;-81
2024/01/25 11:20:28;;;;;;;24.98;7.28;;;;;;;;;;5283197;28;20080;-80
2024/01/25 11:23:01;;;;;;;23.48;6.70;;;;;;;;;;5283981;28;20008;-81
2024/01/25 11:25:33;;;;;;;24.27;7.35;;;;;;;;;;5284511;28;20426;-80
2024/01/25 11:28:05;;;;;;;29.33;8.18;;;;;;;;;;5284215;28;20155;-80
2024/01/25 11:30:36;;;;;;;26.38;7.40;;;;;;;;;;5285244;28;20013;-81
2024/01/25 11:33:08;;;;;;;25.50;8.07;;;;;;;;;;5285216;28;20031;-81
2024/01/25 11:35:39;;;;;;;24.55;7.75;;;;;;;;;;5285728;28;20012;-81
2024/01/25 11:38:10;;;;;;;31.13;8.93;;;;;;;;;;5294719;28;20080;-80
2024/01/25 11:40:41;;;;;;;26.42;8.65;;;;;;;;;;5294404;28;20048;-81
2024/01/25 11:43:14;;;;;;;33.72;9.18;;;;;;;;;;5284312;28;20020;-81
2024/01/25 11:45:45;;;;;;;27.63;8.85;;;;;;;;;;5265956;28;20020;-81
2024/01/25 11:48:18;;;;;;;36.25;10.48;;;;;;;;;;5283224;28;20115;-81
2024/01/25 11:50:49;;;;;;;28.55;9.13;;;;;;;;;;5282961;28;20047;-80
2024/01/25 11:53:20;;;;;;;31.80;9.70;;;;;;;;;;5283951;28;20048;-81
2024/01/25 11:55:52;;;;;;;23.67;9.52;;;;;;;;;;5283265;28;20083;-79
2024/01/25 11:58:24;;;;;;;26.80;9.80;;;;;;;;;;5283419;28;20150;-80
2024/01/25 12:00:55;;;;;;;29.15;9.27;;;;;;;;;;5284475;28;20039;-80
2024/01/25 12:03:27;;;;;;;27.75;9.15;;;;;;;;;;5282039;28;20490;-80
2024/01/25 12:05:59;;;;;;;32.60;9.90;;;;;;;;;;5282871;28;20028;-80
2024/01/25 12:08:35;;;;;;;21.27;7.95;;;;;;;;;;5281464;28;20464;-80
2024/01/25 12:11:07;;;;;;;30.00;9.35;;;;;;;;;;5281466;28;20028;-81
2024/01/25 12:13:39;;;;;;;24.65;9.07;;;;;;;;;;5282697;28;20489;-81
2024/01/25 12:16:11;;;;;;;26.45;7.72;;;;;;;;;;5282709;28;20028;-81
2024/01/25 12:18:43;;;;;;;26.85;9.35;;;;;;;;;;5281768;28;20077;-81
2024/01/25 12:21:14;;;;;;;24.38;9.70;;;;;;;;;;5282373;28;20016;-80
2024/01/25 12:23:46;;;;;;;26.25;9.70;;;;;;;;;;5281874;28;20035;-80
2024/01/25 12:26:17;;;;;;;30.63;10.20;;;;;;;;;;5282777;28;20455;-80
2024/01/25 12:28:49;;;;;;;26.98;8.98;;;;;;;;;;5282556;28;20039;-80
2024/01/25 12:31:20;;;;;;;25.95;10.13;;;;;;;;;;5281553;28;20020;-80
2024/01/25 12:33:52;;;;;;;20.58;9.02;;;;;;;;;;5282382;28;20032;-80
2024/01/25 12:36:25;;;;;;;32.88;9.18;;;;;;;;;;5281787;28;20013;-80
2024/01/25 12:38:56;;;;;;;31.95;10.60;;;;;;;;;;5281632;28;20027;-80
2024/01/25 12:41:27;;;;;;;26.55;10.82;;;;;;;;;;5281758;28;20451;-80
2024/01/25 12:43:59;;;;;;;30.77;11.60;;;;;;;;;;5282198;28;20499;-80
2024/01/25 12:46:30;;;;;;;28.05;10.63;;;;;;;;;;5269033;28;20017;-79
2024/01/25 12:49:03;;;;;;;19.50;8.23;;;;;;;;;;5259792;28;20040;-80
2024/01/25 12:51:34;;;;;;;24.95;9.38;;;;;;;;;;5261305;28;20021;-80
2024/01/25 12:54:06;;;;;;;29.38;10.70;;;;;;;;;;5260265;28;20086;-80
2024/01/25 12:56:37;;;;;;;32.03;10.45;;;;;;;;;;5260615;28;20028;-79
2024/01/25 12:59:08;;;;;;;31.55;10.15;;;;;;;;;;5260706;28;20483;-80
2024/01/25 13:01:40;;;;;;;29.35;11.65;;;;;;;;;;5250742;28;20017;-80
2024/01/25 13:04:11;;;;;;;25.60;10.55;;;;;;;;;;5240528;28;20079;-79
2024/01/25 13:06:42;;;;;;;30.73;10.80;;;;;;;;;;5239484;28;20040;-79
2024/01/25 13:09:14;;;;;;;26.33;10.15;;;;;;;;;;5236926;28;20438;-80
2024/01/25 13:11:46;;;;;;;32.42;10.98;;;;;;;;;;5246314;28;20076;-80
2024/01/25 13:14:17;;;;;;;25.90;9.98;;;;;;;;;;5257875;28;20484;-80
2024/01/25 13:16:48;;;;;;;23.60;10.00;;;;;;;;;;5258945;28;20021;-80
2024/01/25 13:19:20;;;;;;;25.58;10.65;;;;;;;;;;5259506;28;20052;-80
2024/01/25 13:21:51;;;;;;;25.60;10.40;;;;;;;;;;5258066;28;20174;-80
2024/01/25 13:24:22;;;;;;;24.98;11.20;;;;;;;;;;5260357;28;20017;-80
2024/01/25 13:26:54;;;;;;;23.23;11.73;;;;;;;;;;5261461;28;20071;-80
2024/01/25 13:29:25;;;;;;;28.58;12.10;;;;;;;;;;5264458;28;20044;-80
2024/01/25 13:31:56;;;;;;;25.30;12.13;;;;;;;;;;5267174;28;20009;-81
2024/01/25 13:34:27;;;;;;;28.15;13.40;;;;;;;;;;5259604;28;20539;-81
2024/01/25 13:36:58;;;;;;;27.28;13.42;;;;;;;;;;5260191;28;20021;-80
2024/01/25 13:39:29;;;;;;;30.98;13.77;;;;;;;;;;5259778;28;20044;-80
2024/01/25 13:42:00;;;;;;;27.75;12.98;;;;;;;;;;5258666;28;20055;-80
2024/01/25 13:44:32;;;;;;;29.77;13.73;;;;;;;;;;5259538;28;20083;-80
2024/01/25 13:47:03;;;;;;;27.75;13.85;;;;;;;;;;5259935;28;20025;-80
2024/01/25 13:49:35;;;;;;;27.08;14.30;;;;;;;;;;5259283;28;20119;-79
2024/01/25 13:52:06;;;;;;;29.40;13.80;;;;;;;;;;5257772;28;20393;-80
2024/01/25 13:54:37;;;;;;;29.65;14.02;;;;;;;;;;5258348;28;20412;-80
2024/01/25 13:57:08;;;;;;;33.08;15.38;;;;;;;;;;5258336;28;20013;-80
2024/01/25 13:59:39;;;;;;;34.50;15.55;;;;;;;;;;5259741;28;20025;-80
2024/01/25 14:02:11;;;;;;;32.35;14.88;;;;;;;;;;5260001;28;20029;-80
2024/01/25 14:04:42;;;;;;;36.35;14.82;;;;;;;;;;5258825;28;20071;-80
2024/01/25 14:07:15;;;;;;;28.25;12.98;;;;;;;;;;5260556;28;20079;-81
2024/01/25 14:09:46;;;;;;;29.45;13.60;;;;;;;;;;5259658;28;20056;-81
2024/01/25 14:12:17;;;;;;;26.55;13.98;;;;;;;;;;5260685;28;20033;-80
2024/01/25 14:14:48;;;;;;;33.30;14.77;;;;;;;;;;5260711;28;20070;-81
2024/01/25 14:17:21;;;;;;;33.55;16.60;;;;;;;;;;5259578;28;20024;-80
2024/01/25 14:19:53;;;;;;;35.03;15.68;;;;;;;;;;5260384;28;20017;-81
2024/01/25 14:22:24;;;;;;;31.58;15.48;;;;;;;;;;5263421;28;20487;-81
2024/01/25 14:24:55;;;;;;;35.85;16.27;;;;;;;;;;5264097;28;20017;-81
2024/01/25 14:27:27;;;;;;;34.35;15.32;;;;;;;;;;5263803;28;20021;-75
2024/01/25 14:29:59;;;;;;;36.10;16.63;;;;;;;;;;5264022;28;20056;-81
2024/01/25 14:32:30;;;;;;;34.10;15.88;;;;;;;;;;5263442;28;20021;-81
2024/01/25 14:35:02;;;;;;;33.15;16.40;;;;;;;;;;5264338;28;20036;-81
2024/01/25 14:37:33;;;;;;;35.92;15.57;;;;;;;;;;5263244;28;20052;-81
2024/01/25 14:40:04;;;;;;;32.10;14.80;;;;;;;;;;5263727;28;20044;-80
2024/01/25 14:42:37;;;;;;;31.90;16.42;;;;;;;;;;5263894;28;20472;-81
2024/01/25 14:45:08;;;;;;;32.65;14.40;;;;;;;;;;5262508;28;20100;-79
2024/01/25 14:47:40;;;;;;;31.92;14.77;;;;;;;;;;5263862;28;20535;-79
2024/01/25 14:50:11;;;;;;;26.05;13.73;;;;;;;;;;5263647;28;20021;-80
2024/01/25 14:52:42;;;;;;;30.60;14.25;;;;;;;;;;5262774;28;20067;-79